Time;durP1;ratioP1;P1;durP2;ratioP2;P2;SDS_P1;SDS_P2;PMS_P1;PMS_P2;Temp;Humidity;BMP_temperature;BMP_pressure;BME280_temperature;BME280_humidity;BME280_pressure;Samples;Min_cycle;Max_cycle;Signal;HPM_P1;HPM_P2
2023/08/29 05:22:44;;;;;;;2.35;2.15;;;11.60;99.90;;;;;;5033236;28;20166;-88
2023/08/29 05:42:27;;;;;;;1.65;1.55;;;11.60;99.90;;;;;;5032906;28;20258;-90
2023/08/29 05:44:54;;;;;;;1.70;1.60;;;11.70;99.90;;;;;;5024513;28;20198;-87
2023/08/29 05:47:21;;;;;;;1.75;1.65;;;11.60;99.90;;;;;;5028518;28;20210;-87
2023/08/29 05:49:48;;;;;;;1.75;1.65;;;11.70;99.90;;;;;;5024707;28;20290;-90
2023/08/29 05:52:15;;;;;;;2.15;1.75;;;11.70;99.90;;;;;;5031603;28;20226;-87
2023/08/29 05:54:42;;;;;;;1.98;1.88;;;11.70;99.90;;;;;;5028860;28;20191;-87
2023/08/29 05:57:09;;;;;;;1.95;1.85;;;11.70;99.90;;;;;;5019585;28;20312;-87
2023/08/29 05:59:37;;;;;;;1.90;1.80;;;11.70;99.90;;;;;;5032836;28;20201;-87
2023/08/29 06:02:05;;;;;;;2.17;2.00;;;11.70;99.90;;;;;;5030340;28;20233;-87
2023/08/29 06:04:33;;;;;;;2.72;1.70;;;11.70;99.90;;;;;;5043952;28;20194;-87
2023/08/29 06:07:00;;;;;;;2.10;1.90;;;11.70;99.90;;;;;;5035831;28;20206;-89
2023/08/29 06:09:27;;;;;;;1.90;1.80;;;11.70;99.90;;;;;;5028743;28;20210;-89
2023/08/29 06:11:54;;;;;;;3.25;1.67;;;11.70;99.90;;;;;;5026549;28;20199;-88
2023/08/29 06:14:21;;;;;;;3.58;1.77;;;11.70;99.90;;;;;;5033722;28;20198;-87
2023/08/29 06:16:49;;;;;;;4.65;1.92;;;11.70;99.90;;;;;;5035521;28;20217;-88
2023/08/29 06:19:16;;;;;;;1.88;1.50;;;11.80;99.90;;;;;;5034684;28;20214;-87
2023/08/29 06:21:43;;;;;;;1.77;1.58;;;11.80;99.90;;;;;;5028479;28;20195;-87
2023/08/29 06:24:10;;;;;;;2.35;1.63;;;11.80;99.90;;;;;;5033820;28;20209;-87
2023/08/29 06:26:37;;;;;;;2.33;1.60;;;11.80;99.90;;;;;;5034199;28;20809;-87
2023/08/29 06:29:04;;;;;;;1.48;1.38;;;11.90;99.90;;;;;;5022314;28;20230;-86
2023/08/29 06:31:31;;;;;;;1.23;1.20;;;11.90;99.90;;;;;;5033432;28;20206;-86
2023/08/29 06:34:00;;;;;;;1.40;1.30;;;11.90;99.90;;;;;;5033723;28;20209;-87
2023/08/29 06:36:27;;;;;;;1.27;1.10;;;12.00;99.90;;;;;;5033588;28;20313;-88
2023/08/29 06:38:54;;;;;;;1.30;1.20;;;11.90;99.90;;;;;;5031632;28;20687;-89
2023/08/29 06:41:21;;;;;;;1.30;1.20;;;12.00;99.90;;;;;;5031320;28;20257;-88
2023/08/29 06:43:48;;;;;;;1.40;1.30;;;12.10;99.90;;;;;;5015116;28;20285;-87
2023/08/29 06:46:15;;;;;;;1.45;1.30;;;12.10;99.90;;;;;;5016478;28;20199;-87
2023/08/29 06:48:42;;;;;;;1.50;1.40;;;12.20;99.90;;;;;;5017516;28;20206;-88
2023/08/29 06:51:10;;;;;;;1.67;1.40;;;12.20;99.90;;;;;;5033891;28;20218;-86
2023/08/29 06:53:37;;;;;;;1.70;1.60;;;12.20;99.90;;;;;;5035489;28;20186;-86
2023/08/29 07:34:16;;;;;;;2.10;1.83;;;12.60;99.90;;;;;;5025431;28;20205;-86
2023/08/29 07:44:20;;;;;;;1.90;1.73;;;12.80;99.90;;;;;;5035154;28;20202;-86
2023/08/29 09:11:21;;;;;;;1.75;1.65;;;13.70;99.90;;;;;;2850489;22;21727;-89
2023/08/29 09:13:49;;;;;;;1.67;1.00;;;13.60;99.90;;;;;;5014716;28;20210;-87
2023/08/29 09:16:17;;;;;;;1.25;1.05;;;13.70;99.90;;;;;;5005924;28;20222;-88
2023/08/29 09:18:45;;;;;;;1.17;1.00;;;13.70;99.90;;;;;;5026378;28;20205;-88
2023/08/29 09:21:18;;;;;;;1.20;0.88;;;13.80;99.90;;;;;;5016792;28;20596;-87
2023/08/29 09:23:45;;;;;;;1.67;1.05;;;14.00;99.90;;;;;;5033503;28;20202;-87
2023/08/29 09:26:12;;;;;;;1.98;1.23;;;14.00;99.90;;;;;;5034568;28;20203;-88
2023/08/29 09:31:22;;;;;;;2.38;1.70;;;14.00;99.90;;;;;;5030628;28;20209;-87
2023/08/29 09:33:49;;;;;;;1.40;1.30;;;14.00;99.90;;;;;;5041223;28;20647;-88
2023/08/29 09:36:16;;;;;;;1.20;1.10;;;14.20;99.90;;;;;;5023524;28;20214;-89
2023/08/29 09:38:43;;;;;;;1.30;1.20;;;14.20;99.90;;;;;;5011580;28;20558;-88
2023/08/29 09:41:14;;;;;;;1.23;1.00;;;14.00;99.90;;;;;;5013783;28;20202;-87
2023/08/29 09:46:30;;;;;;;3.17;1.58;;;14.10;99.90;;;;;;5038313;28;20211;-87
2023/08/29 09:48:58;;;;;;;2.20;2.05;;;14.00;99.90;;;;;;5008386;28;20211;-87
2023/08/29 09:51:25;;;;;;;1.20;1.20;;;14.10;99.90;;;;;;5033457;28;20218;-87
2023/08/29 09:53:57;;;;;;;1.83;1.15;;;14.20;99.90;;;;;;5036054;28;20779;-88
2023/08/29 09:56:26;;;;;;;1.30;1.20;;;14.20;99.90;;;;;;5023798;28;20567;-88
2023/08/29 10:01:39;;;;;;;95.88;85.40;;;14.10;99.90;;;;;;5025463;28;20210;-90
2023/08/29 10:04:13;;;;;;;10.80;9.60;;;14.00;99.90;;;;;;5014832;28;20234;-88
2023/08/29 10:06:42;;;;;;;5.13;4.63;;;14.20;99.90;;;;;;5029731;28;20211;-89
2023/08/29 10:09:10;;;;;;;1.30;1.20;;;14.40;99.90;;;;;;5031184;28;20202;-89
2023/08/29 10:11:38;;;;;;;1.15;1.10;;;14.40;99.90;;;;;;5009964;28;20576;-90
2023/08/29 10:14:09;;;;;;;1.85;1.20;;;14.50;99.90;;;;;;5034914;28;20592;-89
2023/08/29 10:16:37;;;;;;;2.10;1.92;;;14.50;99.90;;;;;;5026464;28;20242;-88
2023/08/29 10:19:04;;;;;;;70.32;62.60;;;14.80;99.90;;;;;;5014235;28;20260;-87
2023/08/29 10:21:32;;;;;;;2.63;2.22;;;14.90;99.90;;;;;;5030156;28;20690;-88
2023/08/29 10:24:02;;;;;;;2.13;1.95;;;15.00;99.90;;;;;;5013356;28;20290;-87
2023/08/29 10:26:30;;;;;;;1.55;1.10;;;15.20;99.90;;;;;;5032527;28;20203;-87
2023/08/29 10:28:57;;;;;;;1.17;1.13;;;15.20;99.90;;;;;;5033660;28;20543;-88
2023/08/29 10:31:26;;;;;;;1.42;1.00;;;15.20;99.90;;;;;;5027420;28;20210;-87
2023/08/29 10:33:56;;;;;;;1.38;1.25;;;15.20;99.90;;;;;;5010386;28;20244;-87
2023/08/29 10:36:25;;;;;;;1.20;1.10;;;15.00;99.90;;;;;;5032715;28;20222;-87
2023/08/29 10:38:52;;;;;;;1.15;1.00;;;15.10;99.90;;;;;;5034038;28;20652;-88
2023/08/29 10:41:19;;;;;;;1.27;1.08;;;15.20;99.90;;;;;;5012339;28;20199;-87
2023/08/29 10:43:46;;;;;;;0.95;0.95;;;15.10;99.90;;;;;;5029590;28;20196;-87
2023/08/29 10:46:15;;;;;;;0.85;0.85;;;15.30;99.90;;;;;;5029505;28;20203;-87
2023/08/29 10:48:52;;;;;;;1.02;0.98;;;15.30;99.90;;;;;;5017361;28;20189;-85
2023/08/29 10:51:26;;;;;;;1.00;1.00;;;15.20;99.90;;;;;;5026121;28;20691;-87
2023/08/29 10:53:56;;;;;;;0.80;0.80;;;15.10;99.90;;;;;;5027476;28;20297;-87
2023/08/29 10:56:30;;;;;;;2.67;1.00;;;15.00;99.90;;;;;;5029788;28;20325;-88
2023/08/29 10:58:59;;;;;;;1.70;1.25;;;15.10;99.90;;;;;;5021875;28;20199;-88
2023/08/29 11:01:31;;;;;;;1.70;1.23;;;15.10;99.90;;;;;;5030225;28;20206;-87
2023/08/29 11:04:00;;;;;;;1.40;0.90;;;15.20;99.90;;;;;;5014498;28;20195;-87
2023/08/29 11:06:51;;;;;;;1.10;1.00;;;15.20;99.90;;;;;;5028446;28;20198;-88
2023/08/29 11:09:21;;;;;;;1.45;1.00;;;15.10;99.90;;;;;;5026101;28;20202;-86
2023/08/29 11:12:05;;;;;;;2.35;1.50;;;15.10;99.90;;;;;;5029137;28;20211;-86
2023/08/29 11:14:50;;;;;;;1.40;1.00;;;15.10;99.90;;;;;;5025101;28;20262;-86
2023/08/29 11:17:22;;;;;;;1.45;1.10;;;15.00;99.90;;;;;;5031909;28;20214;-86
2023/08/29 11:22:34;;;;;;;1.92;1.73;;;15.00;99.90;;;;;;5025430;28;20199;-87
2023/08/29 11:25:01;;;;;;;1.40;1.30;;;15.10;99.90;;;;;;5020609;28;20202;-88
2023/08/29 11:27:29;;;;;;;1.73;1.27;;;15.20;99.90;;;;;;5024238;28;20195;-88
2023/08/29 11:29:59;;;;;;;1.75;1.02;;;15.40;99.90;;;;;;5012006;28;20574;-88
2023/08/29 11:32:28;;;;;;;2.40;1.52;;;15.40;99.90;;;;;;5010639;28;20715;-88
2023/08/29 11:37:40;;;;;;;1.60;1.50;;;15.60;99.90;;;;;;5025757;28;20214;-87
2023/08/29 11:40:10;;;;;;;2.33;1.30;;;15.30;99.90;;;;;;5013217;28;20199;-87
2023/08/29 11:45:17;;;;;;;1.90;1.70;;;15.00;99.90;;;;;;5016104;28;20897;-89
2023/08/29 11:47:44;;;;;;;2.35;1.10;;;14.80;99.90;;;;;;5020486;28;20214;-89
2023/08/29 11:50:12;;;;;;;5.90;2.65;;;14.80;99.90;;;;;;5011758;28;20194;-91
2023/08/29 11:52:39;;;;;;;2.05;1.73;;;14.70;99.90;;;;;;5026656;28;20218;-89
2023/08/29 11:55:11;;;;;;;2.92;2.38;;;14.70;99.90;;;;;;5013556;28;20212;-89
2023/08/29 11:57:38;;;;;;;3.05;1.83;;;14.90;99.90;;;;;;5029499;28;20215;-88
2023/08/29 12:00:09;;;;;;;2.83;2.00;;;14.90;99.90;;;;;;5029541;28;20229;-88
2023/08/29 12:02:36;;;;;;;1.30;1.20;;;15.20;99.90;;;;;;5002903;28;20823;-88
2023/08/29 12:05:07;;;;;;;2.70;1.80;;;15.30;99.90;;;;;;5025098;28;20213;-89
2023/08/29 12:07:35;;;;;;;5.90;3.25;;;15.30;99.90;;;;;;5026984;28;20227;-87
2023/08/29 12:10:10;;;;;;;2.03;1.77;;;15.20;99.90;;;;;;5023079;28;20665;-89
2023/08/29 12:12:39;;;;;;;2.78;2.42;;;15.10;99.90;;;;;;5019692;28;20216;-88
2023/08/29 12:15:10;;;;;;;2.25;1.80;;;15.00;99.90;;;;;;5026142;28;20198;-88
2023/08/29 12:17:40;;;;;;;1.50;1.30;;;14.90;99.90;;;;;;5029813;28;20248;-88
2023/08/29 12:20:30;;;;;;;1.40;1.30;;;14.90;99.90;;;;;;5030046;28;20209;-87
2023/08/29 12:22:58;;;;;;;1.52;1.40;;;14.80;99.90;;;;;;5005766;28;20203;-87
2023/08/29 12:25:26;;;;;;;1.45;1.33;;;14.90;99.90;;;;;;5032820;28;20195;-87
2023/08/29 12:27:53;;;;;;;1.30;1.20;;;15.10;99.90;;;;;;5018731;28;20554;-87
2023/08/29 12:30:20;;;;;;;2.47;1.30;;;15.30;99.90;;;;;;5024600;28;20195;-87
2023/08/29 12:32:48;;;;;;;2.35;1.80;;;15.10;99.90;;;;;;5029255;28;20532;-87
2023/08/29 12:35:16;;;;;;;2.45;2.10;;;15.20;99.90;;;;;;5023684;28;20685;-88
2023/08/29 12:37:43;;;;;;;1.70;1.50;;;15.30;99.90;;;;;;5027151;28;20222;-87
2023/08/29 12:40:12;;;;;;;2.15;1.58;;;15.40;99.90;;;;;;5021669;28;20202;-87
2023/08/29 12:42:39;;;;;;;3.58;1.90;;;15.40;99.90;;;;;;5025939;28;20200;-87
2023/08/29 12:45:07;;;;;;;1.45;1.35;;;15.30;99.90;;;;;;5022363;28;20213;-88
2023/08/29 12:47:35;;;;;;;3.05;1.40;;;15.10;99.90;;;;;;5019816;28;20203;-87
2023/08/29 12:50:02;;;;;;;2.67;1.70;;;14.80;99.90;;;;;;5025622;28;20549;-88
2023/08/29 12:52:29;;;;;;;3.88;1.90;;;14.60;99.90;;;;;;5023345;28;20692;-89
2023/08/29 12:54:57;;;;;;;1.90;1.40;;;14.50;99.90;;;;;;5028052;28;20672;-87
2023/08/29 13:00:10;;;;;;;2.30;1.80;;;14.20;99.90;;;;;;5028518;28;20309;-87
2023/08/29 13:02:37;;;;;;;2.05;1.52;;;14.10;99.90;;;;;;5011663;28;20265;-88
2023/08/29 13:05:05;;;;;;;2.38;1.50;;;14.30;99.90;;;;;;5036253;28;20206;-88
2023/08/29 13:07:33;;;;;;;1.67;1.23;;;14.40;99.90;;;;;;5030888;28;20202;-87
2023/08/29 13:09:59;;;;;;;2.20;1.00;;;14.40;99.90;;;;;;5036702;28;20209;-88
2023/08/29 13:12:28;;;;;;;1.48;1.00;;;14.50;99.90;;;;;;5009480;28;20206;-87
2023/08/29 13:14:55;;;;;;;1.75;1.30;;;14.60;99.90;;;;;;5033441;28;20290;-87
2023/08/29 13:17:22;;;;;;;1.33;1.23;;;14.80;99.90;;;;;;5011229;28;20246;-88
2023/08/29 13:19:49;;;;;;;1.40;1.25;;;15.00;99.90;;;;;;5020483;28;20287;-87
2023/08/29 13:22:16;;;;;;;1.42;1.33;;;15.30;99.90;;;;;;5011371;28;20517;-87
2023/08/29 13:24:44;;;;;;;2.15;1.30;;;15.30;99.90;;;;;;5037435;28;20205;-87
2023/08/29 13:27:11;;;;;;;2.08;1.70;;;15.30;99.90;;;;;;5032388;28;20207;-87
2023/08/29 13:32:20;;;;;;;3.25;2.58;;;15.10;99.90;;;;;;5026455;28;20572;-88
2023/08/29 13:34:47;;;;;;;1.67;1.58;;;15.30;99.90;;;;;;5028455;28;20602;-87
2023/08/29 13:37:14;;;;;;;1.45;1.33;;;15.30;99.90;;;;;;5009788;28;20232;-87
2023/08/29 13:39:43;;;;;;;1.80;1.40;;;15.20;99.90;;;;;;5004722;28;20209;-87
2023/08/29 13:42:10;;;;;;;2.35;1.95;;;15.00;99.90;;;;;;5028452;28;20292;-88
2023/08/29 13:44:38;;;;;;;2.20;2.00;;;14.90;99.90;;;;;;5032651;28;20195;-87
2023/08/29 13:47:06;;;;;;;1.70;1.60;;;15.00;99.90;;;;;;5024737;28;20230;-88
2023/08/29 13:49:32;;;;;;;2.95;2.00;;;14.70;99.90;;;;;;5020895;28;20200;-88
2023/08/29 13:51:59;;;;;;;2.08;1.50;;;14.80;99.90;;;;;;5025506;28;20222;-88
2023/08/29 13:54:26;;;;;;;1.52;1.42;;;14.80;99.90;;;;;;4988972;28;20244;-87
2023/08/29 13:56:55;;;;;;;1.52;1.42;;;14.80;99.90;;;;;;5031215;28;21854;-88
2023/08/29 13:59:22;;;;;;;1.73;1.63;;;14.70;99.90;;;;;;5024177;28;20275;-88
2023/08/29 14:01:51;;;;;;;2.22;1.88;;;14.70;99.90;;;;;;4992752;28;20732;-88
2023/08/29 14:04:17;;;;;;;2.47;1.67;;;14.70;99.90;;;;;;5028659;28;20249;-87
2023/08/29 14:06:44;;;;;;;1.70;1.60;;;14.80;99.90;;;;;;5012278;28;20202;-87
2023/08/29 14:09:11;;;;;;;2.25;1.80;;;14.70;99.90;;;;;;5029501;28;20203;-86
2023/08/29 14:11:38;;;;;;;1.40;1.25;;;14.90;99.90;;;;;;5022921;28;20213;-88
2023/08/29 14:14:05;;;;;;;1.98;1.88;;;14.90;99.90;;;;;;5009736;28;20199;-87
2023/08/29 14:16:32;;;;;;;2.65;1.50;;;14.90;99.90;;;;;;5026381;28;20549;-86
2023/08/29 14:19:00;;;;;;;1.50;1.40;;;15.10;99.90;;;;;;5025284;28;20243;-87
2023/08/29 14:21:30;;;;;;;1.52;1.42;;;15.10;99.90;;;;;;5010943;28;20926;-87
2023/08/29 14:23:57;;;;;;;3.50;1.40;;;15.10;99.90;;;;;;5025267;28;20580;-87
2023/08/29 14:26:24;;;;;;;1.50;1.10;;;15.10;99.90;;;;;;5030164;28;20670;-86
2023/08/29 14:28:51;;;;;;;2.25;1.77;;;14.90;99.90;;;;;;5035137;28;20202;-85
2023/08/29 14:31:23;;;;;;;1.92;1.83;;;14.90;99.90;;;;;;5026592;28;20205;-89
2023/08/29 14:33:59;;;;;;;3.95;1.67;;;14.90;99.90;;;;;;5009209;28;20647;-86
2023/08/29 14:36:30;;;;;;;1.83;1.55;;;14.80;99.90;;;;;;5027926;28;20561;-86
2023/08/29 14:38:56;;;;;;;2.50;1.83;;;14.80;99.90;;;;;;5034571;28;20642;-87
2023/08/29 14:41:23;;;;;;;1.60;1.38;;;14.70;99.90;;;;;;5034496;28;20202;-86
2023/08/29 14:43:50;;;;;;;1.70;1.60;;;14.70;99.90;;;;;;5020545;28;20719;-87
2023/08/29 14:46:17;;;;;;;4.40;1.92;;;14.60;99.90;;;;;;5011182;28;20257;-86
2023/08/29 14:48:44;;;;;;;2.78;1.60;;;14.60;99.90;;;;;;5026774;28;20195;-87
2023/08/29 14:51:11;;;;;;;2.00;1.55;;;14.60;99.90;;;;;;5030260;28;20219;-87
2023/08/29 14:53:40;;;;;;;2.88;1.90;;;14.50;99.90;;;;;;5030532;28;20978;-88
2023/08/29 14:56:07;;;;;;;3.42;2.15;;;14.60;99.90;;;;;;5031497;28;20205;-87
2023/08/29 14:58:34;;;;;;;3.15;1.55;;;14.80;99.90;;;;;;5033233;28;20218;-86
2023/08/29 15:01:02;;;;;;;1.77;1.63;;;14.90;99.90;;;;;;5032118;28;20302;-86
2023/08/29 15:03:29;;;;;;;1.50;1.40;;;15.10;99.90;;;;;;5026099;28;20659;-87
2023/08/29 15:05:56;;;;;;;2.05;1.90;;;15.00;99.90;;;;;;5035352;28;20293;-86
2023/08/29 15:08:25;;;;;;;2.22;1.90;;;14.80;99.90;;;;;;5029955;28;20258;-87
2023/08/29 15:10:56;;;;;;;2.30;2.20;;;14.60;99.90;;;;;;5030206;28;20203;-88
2023/08/29 15:13:24;;;;;;;3.55;3.20;;;14.50;99.90;;;;;;5008653;28;20656;-87
2023/08/29 15:15:52;;;;;;;3.00;2.80;;;14.50;99.90;;;;;;5025963;28;20253;-85
2023/08/29 15:18:19;;;;;;;4.82;2.47;;;14.40;99.90;;;;;;5007716;28;20571;-88
2023/08/29 15:20:46;;;;;;;2.83;2.63;;;14.40;99.90;;;;;;5023848;28;20206;-87
2023/08/29 15:23:14;;;;;;;4.15;1.90;;;14.20;99.90;;;;;;5021745;28;20202;-87
2023/08/29 15:25:42;;;;;;;5.13;2.50;;;14.20;99.90;;;;;;5023582;28;20203;-86
2023/08/29 15:28:14;;;;;;;3.92;3.17;;;14.20;99.90;;;;;;5008624;28;21217;-87
2023/08/29 15:30:41;;;;;;;4.10;1.95;;;14.30;99.90;;;;;;5009680;28;20254;-87
2023/08/29 15:33:08;;;;;;;3.38;2.70;;;14.10;99.90;;;;;;5025803;28;20902;-87
2023/08/29 15:35:35;;;;;;;2.40;2.20;;;14.10;99.90;;;;;;5027151;28;20206;-90
2023/08/29 15:38:02;;;;;;;2.10;1.80;;;14.30;99.90;;;;;;5006217;28;20230;-87
2023/08/29 15:40:29;;;;;;;3.15;2.10;;;14.20;99.90;;;;;;5030837;28;20198;-88
2023/08/29 15:42:56;;;;;;;2.00;1.85;;;14.20;99.90;;;;;;5031932;28;20826;-89
2023/08/29 15:45:24;;;;;;;2.30;2.10;;;14.20;99.90;;;;;;5014348;28;20205;-88
2023/08/29 15:47:52;;;;;;;2.15;1.95;;;14.20;99.90;;;;;;5018865;28;20313;-88
2023/08/29 15:50:19;;;;;;;1.63;1.52;;;14.20;99.90;;;;;;5018138;28;20190;-88
2023/08/29 15:52:46;;;;;;;2.50;2.08;;;14.10;99.90;;;;;;5028369;28;20203;-88
2023/08/29 15:55:13;;;;;;;1.92;1.83;;;14.10;99.90;;;;;;5028402;28;20276;-86
2023/08/29 15:57:40;;;;;;;1.50;1.40;;;14.30;99.90;;;;;;5027481;28;20844;-86
2023/08/29 16:00:14;;;;;;;1.77;1.67;;;14.20;99.90;;;;;;5012330;28;20660;-86
2023/08/29 16:02:43;;;;;;;2.58;1.55;;;14.20;99.90;;;;;;5029051;28;20281;-86
2023/08/29 16:05:10;;;;;;;2.58;1.88;;;14.10;99.90;;;;;;5028724;28;20203;-87
2023/08/29 16:07:37;;;;;;;1.80;1.70;;;14.00;99.90;;;;;;5014807;28;20550;-86
2023/08/29 16:10:05;;;;;;;1.70;1.60;;;14.00;99.90;;;;;;5010955;28;20191;-86
2023/08/29 16:12:32;;;;;;;1.85;1.67;;;14.00;99.90;;;;;;5026780;28;20566;-86
2023/08/29 16:14:59;;;;;;;2.10;1.67;;;13.90;99.90;;;;;;5026275;28;20195;-86
2023/08/29 16:17:25;;;;;;;1.65;1.50;;;13.90;99.90;;;;;;5000868;28;20196;-85
2023/08/29 16:19:54;;;;;;;1.80;1.70;;;14.00;99.90;;;;;;5005576;28;20302;-85
2023/08/29 16:22:21;;;;;;;1.15;1.15;;;14.00;99.90;;;;;;5009371;28;20647;-85
2023/08/29 16:24:48;;;;;;;1.70;1.60;;;13.90;99.90;;;;;;4996986;28;20210;-86
2023/08/29 16:27:15;;;;;;;2.25;2.05;;;13.90;99.90;;;;;;5006527;28;20194;-85
2023/08/29 16:29:42;;;;;;;1.80;1.70;;;13.80;99.90;;;;;;4992272;28;20205;-87
2023/08/29 16:32:09;;;;;;;3.65;2.30;;;13.90;99.90;;;;;;5020000;28;20203;-87
2023/08/29 16:34:36;;;;;;;1.50;1.40;;;14.00;99.90;;;;;;5022155;28;20191;-87
2023/08/29 16:37:05;;;;;;;2.67;2.13;;;13.90;99.90;;;;;;5003759;28;20203;-88
2023/08/29 16:39:32;;;;;;;1.70;1.60;;;14.00;99.90;;;;;;5022016;28;20222;-86
2023/08/29 16:41:59;;;;;;;2.20;2.00;;;14.00;99.90;;;;;;5029414;28;20656;-87
2023/08/29 16:44:26;;;;;;;2.28;1.92;;;13.90;99.90;;;;;;5027869;28;20278;-87
2023/08/29 16:46:53;;;;;;;1.75;1.65;;;13.90;99.90;;;;;;5014472;28;20198;-86
2023/08/29 16:49:22;;;;;;;2.20;2.00;;;14.00;99.90;;;;;;5027589;28;20203;-87
2023/08/29 16:51:51;;;;;;;1.95;1.85;;;13.90;99.90;;;;;;5036970;28;20226;-85
2023/08/29 16:57:01;;;;;;;1.60;1.38;;;13.90;99.90;;;;;;5025048;28;20198;-87
2023/08/29 16:59:31;;;;;;;1.30;1.20;;;13.80;99.90;;;;;;5028910;28;20237;-87
2023/08/29 17:01:59;;;;;;;1.90;1.50;;;13.70;99.90;;;;;;4990278;28;20617;-84
2023/08/29 17:04:26;;;;;;;1.38;1.27;;;13.80;99.90;;;;;;5006537;28;20205;-86
2023/08/29 17:06:53;;;;;;;2.28;1.80;;;13.70;99.90;;;;;;5016240;28;20211;-86
2023/08/29 17:09:21;;;;;;;2.03;1.77;;;13.70;99.90;;;;;;5030206;28;20674;-88
2023/08/29 17:11:48;;;;;;;2.42;2.20;;;13.70;99.90;;;;;;5031447;28;20570;-86
2023/08/29 17:14:15;;;;;;;2.40;1.80;;;13.70;99.90;;;;;;5007775;28;20218;-83
2023/08/29 17:16:42;;;;;;;2.40;2.20;;;13.80;99.90;;;;;;5027800;28;20203;-84
2023/08/29 17:19:09;;;;;;;2.53;2.33;;;13.70;99.90;;;;;;5030709;28;20245;-87
2023/08/29 17:21:37;;;;;;;2.67;2.40;;;13.70;99.90;;;;;;5025781;28;21668;-84
2023/08/29 17:24:04;;;;;;;4.78;3.03;;;13.60;99.90;;;;;;5025955;28;20202;-83
2023/08/29 17:26:34;;;;;;;3.38;3.08;;;13.60;99.90;;;;;;5024859;28;20206;-86
2023/08/29 17:29:01;;;;;;;3.83;3.10;;;13.60;99.90;;;;;;5015702;28;20203;-87
2023/08/29 17:31:33;;;;;;;3.60;3.03;;;13.60;99.90;;;;;;5010586;28;20202;-88
2023/08/29 17:34:01;;;;;;;4.45;3.28;;;13.60;99.90;;;;;;5023486;28;20203;-89
2023/08/29 17:36:28;;;;;;;4.35;3.35;;;13.70;99.90;;;;;;5021917;28;20710;-89
2023/08/29 17:38:55;;;;;;;5.20;3.40;;;13.60;99.90;;;;;;5006880;28;20522;-88
2023/08/29 17:41:25;;;;;;;6.05;3.58;;;13.60;99.90;;;;;;5027241;28;20646;-89
2023/08/29 17:43:53;;;;;;;4.03;3.50;;;13.50;99.90;;;;;;5029878;28;20241;-87
2023/08/29 17:46:20;;;;;;;6.18;3.15;;;13.50;99.90;;;;;;5027708;28;20289;-86
2023/08/29 17:48:48;;;;;;;5.18;3.03;;;13.40;99.90;;;;;;5025854;28;20203;-85
2023/08/29 17:51:15;;;;;;;5.15;2.90;;;13.50;99.90;;;;;;5024135;28;20249;-84
2023/08/29 17:53:42;;;;;;;3.85;3.20;;;13.60;99.90;;;;;;5028978;28;20202;-85
2023/08/29 17:56:08;;;;;;;3.70;2.88;;;13.70;99.90;;;;;;5007225;28;20648;-86
2023/08/29 17:58:36;;;;;;;3.55;2.95;;;13.60;99.90;;;;;;5032882;28;20202;-86
2023/08/29 18:01:05;;;;;;;4.00;2.83;;;13.60;99.90;;;;;;5011497;28;21908;-85
2023/08/29 18:03:33;;;;;;;3.60;3.30;;;13.50;99.90;;;;;;5024490;28;20326;-87
2023/08/29 18:06:00;;;;;;;4.50;3.35;;;13.60;99.90;;;;;;5006421;28;20299;-86
2023/08/29 18:08:27;;;;;;;4.22;3.28;;;13.60;99.90;;;;;;4989512;28;20209;-86
2023/08/29 18:10:56;;;;;;;4.30;3.20;;;13.50;99.90;;;;;;5002535;28;20203;-87
2023/08/29 18:13:29;;;;;;;5.70;3.72;;;13.60;99.90;;;;;;4999969;28;20214;-88
2023/08/29 18:16:02;;;;;;;5.55;3.03;;;13.60;99.90;;;;;;5022141;28;20308;-89
2023/08/29 18:18:38;;;;;;;3.58;3.28;;;13.60;99.90;;;;;;5031932;28;20237;-86
2023/08/29 18:21:07;;;;;;;3.92;3.30;;;13.50;99.90;;;;;;5023210;28;20225;-88
2023/08/29 18:23:34;;;;;;;3.58;2.90;;;13.40;99.90;;;;;;5031158;28;20245;-88
2023/08/29 18:26:06;;;;;;;3.75;3.40;;;13.50;99.90;;;;;;5024946;28;20543;-88
2023/08/29 18:31:20;;;;;;;3.70;3.30;;;13.60;99.90;;;;;;5030669;28;20198;-87
2023/08/29 18:36:41;;;;;;;3.97;3.67;;;13.60;99.90;;;;;;5034281;28;20282;-85
2023/08/29 18:39:08;;;;;;;4.15;3.67;;;13.60;99.90;;;;;;5015378;28;20555;-87
2023/08/29 18:41:35;;;;;;;4.65;4.20;;;13.60;99.90;;;;;;5012663;28;20234;-87
2023/08/29 18:44:04;;;;;;;4.55;3.47;;;13.60;99.90;;;;;;5031043;28;20194;-86
2023/08/29 18:46:32;;;;;;;4.35;3.88;;;13.50;99.90;;;;;;5032217;28;20340;-86
2023/08/29 18:51:45;;;;;;;5.90;3.67;;;13.60;99.90;;;;;;5017725;28;20218;-89
2023/08/29 18:56:56;;;;;;;5.45;3.72;;;13.70;99.90;;;;;;5024887;28;20652;-86
2023/08/29 18:59:23;;;;;;;4.60;3.50;;;13.70;99.90;;;;;;5010584;28;20215;-88
2023/08/29 19:01:50;;;;;;;4.45;4.00;;;13.50;99.90;;;;;;4996466;28;20203;-88
2023/08/29 19:06:59;;;;;;;4.55;4.07;;;13.60;99.90;;;;;;5022222;28;20565;-89
2023/08/29 19:09:27;;;;;;;4.20;3.80;;;13.40;99.90;;;;;;5015620;28;20639;-88
2023/08/29 19:11:54;;;;;;;6.20;3.60;;;13.40;99.90;;;;;;5031428;28;20218;-89
2023/08/29 19:14:22;;;;;;;3.97;3.65;;;13.40;99.90;;;;;;5030921;28;20607;-89
2023/08/29 19:19:31;;;;;;;4.07;3.60;;;13.40;99.90;;;;;;5002828;28;20291;-90
2023/08/29 19:22:18;;;;;;;5.97;4.63;;;13.60;99.90;;;;;;5007031;28;20202;-87
2023/08/29 19:25:00;;;;;;;4.40;3.85;;;13.50;99.90;;;;;;5009364;28;20199;-87
2023/08/29 19:27:30;;;;;;;6.28;5.63;;;13.40;99.90;;;;;;5002304;28;20691;-89
2023/08/29 19:29:57;;;;;;;7.50;4.18;;;13.40;99.90;;;;;;5029830;28;20199;-88
2023/08/29 19:32:24;;;;;;;5.80;5.07;;;13.30;99.90;;;;;;4989354;28;20620;-88
2023/08/29 19:34:53;;;;;;;6.15;4.72;;;13.40;99.90;;;;;;5016635;28;20249;-88
2023/08/29 19:37:21;;;;;;;5.20;4.25;;;13.30;99.90;;;;;;5006056;28;20234;-86
2023/08/29 19:39:47;;;;;;;4.45;4.03;;;13.40;99.90;;;;;;5023320;28;20222;-86
2023/08/29 19:42:14;;;;;;;5.10;4.15;;;13.40;99.90;;;;;;5026687;28;20198;-86
2023/08/29 19:44:41;;;;;;;4.45;4.05;;;13.40;99.90;;;;;;5011712;28;20195;-86
2023/08/29 19:47:10;;;;;;;8.55;7.70;;;13.30;99.90;;;;;;5023875;28;20214;-87
2023/08/29 19:49:38;;;;;;;11.23;10.00;;;13.30;99.90;;;;;;5010268;28;20213;-85
2023/08/29 19:52:07;;;;;;;12.27;10.70;;;13.30;99.90;;;;;;5006879;28;20293;-85
2023/08/29 19:54:34;;;;;;;7.05;5.78;;;13.30;99.90;;;;;;5024830;28;20566;-86
2023/08/29 19:57:03;;;;;;;4.97;4.47;;;13.30;99.90;;;;;;5018890;28;20210;-86
2023/08/29 19:59:32;;;;;;;5.97;5.03;;;13.30;99.90;;;;;;5009310;28;20682;-85
2023/08/29 20:01:59;;;;;;;6.18;5.20;;;13.20;99.90;;;;;;5024864;28;20256;-86
2023/08/29 20:04:26;;;;;;;5.07;4.55;;;13.20;99.90;;;;;;5008008;28;20213;-85
2023/08/29 20:06:53;;;;;;;5.00;4.50;;;13.00;99.90;;;;;;5008508;28;20204;-86
2023/08/29 20:09:22;;;;;;;5.43;4.93;;;13.00;99.90;;;;;;5024921;28;20207;-85
2023/08/29 20:11:49;;;;;;;9.30;7.22;;;12.90;99.90;;;;;;5006183;28;20592;-86
2023/08/29 20:14:16;;;;;;;7.55;6.82;;;13.00;99.90;;;;;;5025114;28;20566;-86
2023/08/29 20:16:43;;;;;;;5.22;4.82;;;13.20;99.90;;;;;;5022967;28;20202;-87
2023/08/29 20:19:10;;;;;;;5.40;4.90;;;13.20;99.90;;;;;;5020698;28;20544;-87
2023/08/29 20:21:37;;;;;;;7.40;6.60;;;13.10;99.90;;;;;;5010153;28;20238;-86
2023/08/29 20:24:04;;;;;;;6.53;5.30;;;13.20;99.90;;;;;;5018592;28;20195;-87
2023/08/29 20:26:33;;;;;;;5.18;4.72;;;13.10;99.90;;;;;;5006312;28;20205;-87
2023/08/29 20:29:00;;;;;;;8.35;7.50;;;13.10;99.90;;;;;;5003882;28;20674;-85
2023/08/29 20:31:27;;;;;;;7.28;4.93;;;13.00;99.90;;;;;;5024421;28;20560;-86
2023/08/29 20:33:54;;;;;;;5.55;5.05;;;13.00;99.90;;;;;;5022344;28;20560;-85
2023/08/29 20:36:21;;;;;;;5.15;4.65;;;13.00;99.90;;;;;;5024920;28;20202;-85
2023/08/29 20:38:48;;;;;;;4.47;3.78;;;13.10;99.90;;;;;;5007537;28;20209;-85
2023/08/29 20:41:14;;;;;;;5.75;5.13;;;13.00;99.90;;;;;;5008473;28;20241;-86
2023/08/29 20:43:44;;;;;;;5.28;4.78;;;13.10;99.90;;;;;;5004487;28;20198;-86
2023/08/29 20:46:14;;;;;;;4.80;4.40;;;13.00;99.90;;;;;;5009474;28;20202;-86
2023/08/29 20:48:41;;;;;;;6.32;5.72;;;13.10;99.90;;;;;;5007426;28;20258;-86
2023/08/29 20:51:08;;;;;;;6.00;4.40;;;13.10;99.90;;;;;;5024640;28;20223;-86
2023/08/29 20:53:36;;;;;;;4.70;4.30;;;13.30;99.90;;;;;;5005910;28;20253;-86
2023/08/29 20:56:03;;;;;;;4.72;4.28;;;13.20;99.90;;;;;;5013856;28;20213;-85
2023/08/29 20:58:30;;;;;;;4.72;4.28;;;13.30;99.90;;;;;;4995804;28;20265;-86
2023/08/29 21:01:00;;;;;;;5.47;4.97;;;13.20;99.90;;;;;;5028243;28;20217;-86
2023/08/29 21:03:28;;;;;;;5.63;4.32;;;13.20;99.90;;;;;;5020855;28;20225;-85
2023/08/29 21:05:56;;;;;;;5.45;4.93;;;13.20;99.90;;;;;;5018700;28;20199;-86
2023/08/29 21:08:25;;;;;;;6.80;5.32;;;13.10;99.90;;;;;;5021134;28;20208;-86
2023/08/29 21:10:52;;;;;;;7.10;5.22;;;13.10;99.90;;;;;;5010976;28;20207;-86
2023/08/29 21:13:27;;;;;;;4.85;4.45;;;13.20;99.90;;;;;;5003890;28;20285;-87
2023/08/29 21:15:54;;;;;;;5.10;4.35;;;13.20;99.90;;;;;;5024893;28;20196;-86
2023/08/29 21:18:23;;;;;;;5.15;4.70;;;13.20;99.90;;;;;;5009204;28;20294;-87
2023/08/29 21:20:52;;;;;;;5.07;4.65;;;13.10;99.90;;;;;;5031894;28;20234;-87